Time;durP1;ratioP1;P1;durP2;ratioP2;P2;SDS_P1;SDS_P2;PMS_P1;PMS_P2;Temp;Humidity;BMP_temperature;BMP_pressure;BME280_temperature;BME280_humidity;BME280_pressure;Samples;Min_cycle;Max_cycle;Signal;HPM_P1;HPM_P2
2023/09/11 00:00:42;;;;;;;17.83;11.50;;;21.70;90.70;;;;;;4949798;28;20078;-80
2023/09/11 00:03:08;;;;;;;19.15;12.25;;;21.70;90.80;;;;;;4973359;28;20038;-80
2023/09/11 00:05:33;;;;;;;16.55;11.35;;;21.50;90.80;;;;;;4969936;28;20034;-81
2023/09/11 00:07:59;;;;;;;20.67;11.85;;;21.50;90.80;;;;;;4988537;28;20054;-80
2023/09/11 00:10:25;;;;;;;18.92;11.88;;;21.40;90.80;;;;;;4969139;28;20402;-79
2023/09/11 00:12:50;;;;;;;21.38;12.10;;;21.30;90.90;;;;;;4968106;28;20498;-80
2023/09/11 00:15:16;;;;;;;22.25;12.40;;;21.20;91.20;;;;;;4969869;28;20027;-80
2023/09/11 00:17:41;;;;;;;23.83;12.32;;;21.20;91.20;;;;;;4983877;28;20058;-80
2023/09/11 00:20:10;;;;;;;18.35;12.02;;;21.30;91.10;;;;;;4967918;28;20027;-81
2023/09/11 00:22:36;;;;;;;21.80;11.52;;;21.10;91.20;;;;;;4969353;28;20027;-80
2023/09/11 00:25:02;;;;;;;25.08;12.95;;;21.10;91.30;;;;;;4957018;28;20034;-80
2023/09/11 00:27:28;;;;;;;16.75;11.43;;;21.10;91.30;;;;;;4970041;28;20092;-79
2023/09/11 00:29:54;;;;;;;22.73;12.27;;;21.10;91.40;;;;;;4972416;28;20529;-79
2023/09/11 00:32:19;;;;;;;22.23;11.85;;;21.00;91.30;;;;;;4972775;28;20062;-79
2023/09/11 00:34:45;;;;;;;19.83;11.25;;;21.00;91.20;;;;;;4974534;28;20035;-79
2023/09/11 00:37:10;;;;;;;19.40;11.55;;;20.90;91.40;;;;;;4957515;28;20545;-80
2023/09/11 00:39:36;;;;;;;20.33;10.80;;;20.80;91.50;;;;;;4959237;28;20038;-80
2023/09/11 00:42:01;;;;;;;27.38;10.52;;;20.80;91.50;;;;;;4978703;28;20041;-80
2023/09/11 00:44:28;;;;;;;17.58;10.50;;;20.90;91.50;;;;;;4990032;28;20058;-80
2023/09/11 00:46:55;;;;;;;26.17;10.68;;;20.80;91.50;;;;;;4961400;28;20043;-80
2023/09/11 00:49:21;;;;;;;15.32;11.07;;;20.80;91.50;;;;;;4973115;28;20043;-80
2023/09/11 00:51:48;;;;;;;22.00;10.93;;;20.80;91.60;;;;;;4973415;28;20031;-80
2023/09/11 00:54:14;;;;;;;20.05;10.95;;;20.80;91.30;;;;;;4971476;28;20042;-80
2023/09/11 00:56:39;;;;;;;23.02;11.30;;;20.80;91.40;;;;;;4972603;28;20085;-79
2023/09/11 00:59:05;;;;;;;22.02;12.07;;;20.60;91.90;;;;;;4992692;28;20047;-79
2023/09/11 01:01:30;;;;;;;21.20;11.43;;;20.70;91.50;;;;;;4976161;28;20038;-80
2023/09/11 01:03:56;;;;;;;12.70;8.48;;;20.70;91.50;;;;;;4958115;28;20037;-80
2023/09/11 01:06:22;;;;;;;10.73;6.72;;;20.60;91.40;;;;;;4977448;28;20117;-80
2023/09/11 01:08:47;;;;;;;12.73;7.00;;;20.60;91.30;;;;;;4976860;28;20035;-80
2023/09/11 01:11:13;;;;;;;12.43;7.88;;;20.70;91.40;;;;;;4960069;28;20483;-80
2023/09/11 01:13:38;;;;;;;13.95;7.68;;;20.60;91.30;;;;;;4971575;28;20035;-80
2023/09/11 01:16:39;;;;;;;17.35;10.60;;;20.60;91.40;;;;;;4958606;28;20608;-80
2023/09/11 01:19:08;;;;;;;12.18;7.80;;;20.50;91.40;;;;;;4956692;28;21344;-80
2023/09/11 01:21:52;;;;;;;13.02;7.95;;;20.50;91.40;;;;;;4974355;28;20034;-80
2023/09/11 01:24:32;;;;;;;20.85;10.77;;;20.50;91.40;;;;;;4985208;28;20062;-80
2023/09/11 01:27:07;;;;;;;19.13;11.13;;;20.40;91.90;;;;;;4976781;28;20039;-80
2023/09/11 01:29:33;;;;;;;22.13;12.17;;;20.30;91.90;;;;;;4969374;28;20035;-80
2023/09/11 01:31:59;;;;;;;22.55;12.05;;;20.10;92.10;;;;;;4971279;28;20700;-80
2023/09/11 01:34:25;;;;;;;22.98;12.40;;;20.20;91.90;;;;;;4974744;28;20050;-80
2023/09/11 01:36:50;;;;;;;21.17;11.70;;;20.20;92.20;;;;;;4971548;28;20030;-80
2023/09/11 01:39:16;;;;;;;16.98;11.43;;;20.20;92.60;;;;;;4955584;28;20546;-80
2023/09/11 01:41:43;;;;;;;29.05;12.00;;;20.10;92.40;;;;;;4976144;28;20026;-79
2023/09/11 01:44:23;;;;;;;19.52;10.88;;;20.10;92.50;;;;;;4973345;28;20141;-79
2023/09/11 01:46:49;;;;;;;24.33;11.90;;;20.10;92.40;;;;;;4970430;28;20026;-80
2023/09/11 01:49:17;;;;;;;24.95;12.35;;;20.10;92.90;;;;;;4954855;28;20402;-79
2023/09/11 01:51:43;;;;;;;24.20;11.70;;;20.10;92.60;;;;;;4987271;28;20085;-80
2023/09/11 01:54:09;;;;;;;26.95;11.70;;;20.00;92.60;;;;;;4970748;28;20475;-80
2023/09/11 01:56:35;;;;;;;21.58;12.88;;;19.90;92.80;;;;;;4969674;28;20130;-80
2023/09/11 01:59:01;;;;;;;17.40;11.55;;;20.00;92.50;;;;;;4984473;28;20205;-80
2023/09/11 02:01:27;;;;;;;22.88;12.95;;;19.90;92.60;;;;;;4958577;28;20026;-80
2023/09/11 02:03:52;;;;;;;24.35;12.07;;;19.90;93.60;;;;;;4970954;28;20029;-79
2023/09/11 02:06:18;;;;;;;20.52;11.80;;;19.80;93.30;;;;;;4971287;28;20047;-80
2023/09/11 02:08:43;;;;;;;19.95;11.95;;;19.80;92.70;;;;;;4970513;28;20061;-79
2023/09/11 02:11:10;;;;;;;18.15;10.05;;;19.70;92.80;;;;;;4973195;28;20129;-79
2023/09/11 02:13:36;;;;;;;17.48;9.25;;;19.80;92.40;;;;;;4971555;28;20034;-79
2023/09/11 02:16:02;;;;;;;21.48;12.30;;;19.80;92.30;;;;;;4973073;28;20049;-80
2023/09/11 02:18:27;;;;;;;23.08;11.95;;;19.70;94.10;;;;;;4970160;28;20118;-80
2023/09/11 02:20:53;;;;;;;27.20;12.02;;;19.70;93.70;;;;;;4970533;28;20050;-80
2023/09/11 02:23:18;;;;;;;19.75;12.05;;;19.60;92.80;;;;;;4967994;28;20659;-80
2023/09/11 02:25:44;;;;;;;22.35;12.13;;;19.80;92.60;;;;;;4970138;28;20042;-80
2023/09/11 02:28:10;;;;;;;18.20;11.98;;;19.60;93.40;;;;;;4986665;28;20146;-79
2023/09/11 02:30:35;;;;;;;17.75;11.52;;;19.60;93.60;;;;;;4975949;28;20059;-80
2023/09/11 02:33:03;;;;;;;23.58;12.40;;;19.50;93.30;;;;;;4956037;28;20940;-80
2023/09/11 02:35:29;;;;;;;19.60;11.15;;;19.50;93.70;;;;;;4971097;28;20081;-80
2023/09/11 02:37:54;;;;;;;19.17;11.70;;;19.50;95.20;;;;;;4973803;28;20047;-80
2023/09/11 02:40:20;;;;;;;17.70;11.82;;;19.40;93.80;;;;;;4971714;28;20051;-80
2023/09/11 02:42:45;;;;;;;18.30;11.43;;;19.40;96.20;;;;;;4957880;28;20501;-80
2023/09/11 02:45:12;;;;;;;24.13;11.13;;;19.30;95.10;;;;;;4972644;28;20573;-80
2023/09/11 02:47:37;;;;;;;17.05;10.32;;;19.30;96.70;;;;;;4969586;28;20039;-80
2023/09/11 02:50:03;;;;;;;16.77;12.15;;;19.20;96.10;;;;;;4972517;28;20572;-80
2023/09/11 02:52:29;;;;;;;23.48;11.90;;;19.20;97.80;;;;;;4955735;28;20030;-80
2023/09/11 02:54:54;;;;;;;20.83;11.40;;;19.20;96.50;;;;;;4965999;28;20058;-80
2023/09/11 02:57:20;;;;;;;24.30;11.63;;;19.20;97.60;;;;;;4971513;28;20498;-81
2023/09/11 02:59:45;;;;;;;21.80;11.40;;;19.20;96.60;;;;;;4973445;28;20069;-80
2023/09/11 03:02:11;;;;;;;19.45;12.43;;;19.10;97.50;;;;;;4971431;28;20039;-80
2023/09/11 03:04:37;;;;;;;21.92;12.35;;;19.20;98.30;;;;;;4970254;28;20178;-80
2023/09/11 03:07:02;;;;;;;22.20;12.35;;;19.10;96.30;;;;;;4969190;28;20482;-80
2023/09/11 03:09:28;;;;;;;24.33;12.43;;;19.20;97.00;;;;;;4965326;28;20089;-80
2023/09/11 03:11:53;;;;;;;20.23;12.45;;;19.10;96.10;;;;;;4971406;28;20490;-80
2023/09/11 03:14:19;;;;;;;14.95;11.95;;;19.00;96.10;;;;;;4970708;28;20380;-80
2023/09/11 03:16:44;;;;;;;24.42;12.02;;;19.00;96.10;;;;;;4968291;28;20499;-79
2023/09/11 03:19:13;;;;;;;20.27;12.77;;;19.00;95.90;;;;;;4970483;28;20038;-79
2023/09/11 03:21:38;;;;;;;17.92;12.30;;;18.90;97.20;;;;;;4969622;28;20644;-80
2023/09/11 03:24:04;;;;;;;20.45;11.93;;;18.90;96.20;;;;;;4969244;28;20357;-79
2023/09/11 03:26:30;;;;;;;21.98;11.75;;;18.90;96.20;;;;;;4953636;28;20134;-80
2023/09/11 03:28:55;;;;;;;17.88;12.02;;;18.90;95.90;;;;;;4970159;28;20442;-80
2023/09/11 03:31:21;;;;;;;27.77;13.13;;;18.80;97.50;;;;;;4964916;28;20514;-80
2023/09/11 03:33:47;;;;;;;24.20;13.73;;;18.80;96.60;;;;;;4960196;28;20039;-80
2023/09/11 03:36:16;;;;;;;22.83;12.55;;;18.80;96.20;;;;;;4969089;28;20046;-79
2023/09/11 03:38:42;;;;;;;21.33;13.23;;;18.80;97.90;;;;;;4965669;28;20088;-79
2023/09/11 03:41:07;;;;;;;22.75;12.52;;;18.80;96.70;;;;;;4972093;28;20038;-80
2023/09/11 03:43:33;;;;;;;24.02;12.27;;;18.80;96.30;;;;;;4968854;28;20023;-79
2023/09/11 03:45:58;;;;;;;19.70;12.60;;;18.70;96.00;;;;;;4953826;28;20038;-79
2023/09/11 03:48:24;;;;;;;21.23;12.77;;;18.70;97.80;;;;;;4968692;28;20050;-80
2023/09/11 03:50:49;;;;;;;17.65;11.68;;;18.70;96.40;;;;;;4971459;28;20084;-80
2023/09/11 03:53:15;;;;;;;18.38;11.98;;;18.60;96.50;;;;;;4951090;28;21826;-80
2023/09/11 03:55:40;;;;;;;18.90;11.55;;;18.60;97.30;;;;;;4973576;28;20471;-81
2023/09/11 03:58:06;;;;;;;20.42;11.52;;;18.60;96.60;;;;;;4968880;28;20125;-80
2023/09/11 04:00:32;;;;;;;22.23;12.43;;;18.50;98.50;;;;;;4967956;28;20041;-80
2023/09/11 04:02:57;;;;;;;21.80;12.27;;;18.50;97.30;;;;;;4968262;28;20035;-80
2023/09/11 04:05:23;;;;;;;19.77;11.35;;;18.60;97.50;;;;;;4972909;28;20066;-81
2023/09/11 04:07:48;;;;;;;23.45;11.82;;;18.50;97.00;;;;;;4971357;28;20097;-80
2023/09/11 04:10:14;;;;;;;20.63;11.90;;;18.50;97.50;;;;;;4979766;28;20051;-80
2023/09/11 04:12:45;;;;;;;17.05;11.07;;;18.50;97.20;;;;;;4974069;28;20030;-80
2023/09/11 04:15:11;;;;;;;18.10;11.80;;;18.40;97.70;;;;;;4957338;28;20558;-80
2023/09/11 04:17:37;;;;;;;20.42;10.80;;;18.40;97.60;;;;;;4987057;28;20046;-80
2023/09/11 04:20:03;;;;;;;19.83;11.20;;;18.40;99.60;;;;;;4957699;28;20498;-80
2023/09/11 04:22:29;;;;;;;16.15;12.18;;;18.30;98.30;;;;;;4978702;28;20043;-80
2023/09/11 04:24:54;;;;;;;23.67;11.82;;;18.30;99.40;;;;;;4976574;28;20641;-80
2023/09/11 04:27:20;;;;;;;20.58;11.40;;;18.30;99.90;;;;;;4975771;28;20038;-80
2023/09/11 04:29:46;;;;;;;22.98;11.45;;;18.40;99.10;;;;;;4972031;28;20050;-80
2023/09/11 04:32:13;;;;;;;17.30;10.73;;;18.40;98.50;;;;;;4977778;28;20029;-81
2023/09/11 04:34:38;;;;;;;20.90;12.05;;;18.40;99.90;;;;;;4936754;28;20038;-80
2023/09/11 04:37:04;;;;;;;25.27;11.93;;;18.30;99.90;;;;;;4980149;28;20045;-80
2023/09/11 04:39:30;;;;;;;20.13;11.30;;;18.30;99.90;;;;;;4951935;28;20399;-80
2023/09/11 04:41:55;;;;;;;23.02;12.05;;;18.30;99.20;;;;;;4972664;28;20043;-80
2023/09/11 04:44:21;;;;;;;16.02;10.93;;;18.20;99.90;;;;;;4970779;28;20473;-80
2023/09/11 04:46:46;;;;;;;20.10;10.85;;;18.30;99.90;;;;;;4972609;28;20364;-81
2023/09/11 04:49:12;;;;;;;27.77;12.93;;;18.30;99.90;;;;;;4975646;28;20090;-79
2023/09/11 04:51:38;;;;;;;21.02;11.32;;;18.30;99.90;;;;;;4971077;28;20891;-80
2023/09/11 04:54:03;;;;;;;19.52;11.02;;;18.30;99.90;;;;;;4957290;28;20780;-79
2023/09/11 04:56:29;;;;;;;17.83;10.35;;;18.30;99.90;;;;;;4972446;28;20536;-80
2023/09/11 04:58:54;;;;;;;21.05;10.15;;;18.20;99.90;;;;;;4974305;28;20121;-80
2023/09/11 05:01:20;;;;;;;19.95;10.82;;;18.20;99.90;;;;;;4972167;28;20069;-80
2023/09/11 05:03:45;;;;;;;23.05;10.77;;;18.30;99.90;;;;;;4974998;28;20097;-79
2023/09/11 05:06:11;;;;;;;17.17;10.82;;;18.30;99.90;;;;;;4956087;28;20650;-80
2023/09/11 05:08:37;;;;;;;22.35;10.75;;;18.30;99.90;;;;;;4973082;28;20421;-80
2023/09/11 05:11:02;;;;;;;23.13;11.43;;;18.40;99.90;;;;;;4953030;28;20046;-79
2023/09/11 05:13:28;;;;;;;13.43;8.65;;;18.30;99.90;;;;;;4954106;28;20602;-79
2023/09/11 05:15:54;;;;;;;21.98;9.98;;;18.30;99.90;;;;;;4975236;28;20038;-80
2023/09/11 05:18:20;;;;;;;24.00;9.88;;;18.40;99.90;;;;;;4967632;28;20078;-80
2023/09/11 05:20:47;;;;;;;19.60;10.30;;;18.50;99.90;;;;;;4973112;28;20074;-81
2023/09/11 05:23:13;;;;;;;20.83;9.70;;;18.50;99.90;;;;;;4956668;28;20446;-81
2023/09/11 05:25:38;;;;;;;18.50;9.00;;;18.40;99.90;;;;;;4968565;28;20031;-80
2023/09/11 05:28:04;;;;;;;19.52;9.20;;;18.50;99.90;;;;;;4974243;28;20549;-80
2023/09/11 05:30:30;;;;;;;13.55;9.10;;;18.60;99.90;;;;;;4968434;28;20578;-79
2023/09/11 05:32:55;;;;;;;16.05;8.15;;;18.60;99.90;;;;;;4971558;28;20039;-79
2023/09/11 05:35:21;;;;;;;18.95;8.95;;;18.70;99.90;;;;;;4956343;28;20031;-80
2023/09/11 05:37:48;;;;;;;14.38;8.18;;;18.80;99.90;;;;;;4958642;28;20085;-81
2023/09/11 05:40:13;;;;;;;18.52;8.60;;;18.80;99.90;;;;;;4970521;28;20464;-82
2023/09/11 05:42:39;;;;;;;16.42;9.10;;;18.80;99.90;;;;;;4955251;28;20065;-83
2023/09/11 05:45:06;;;;;;;11.38;7.93;;;19.00;99.90;;;;;;4987536;28;20422;-81
2023/09/11 05:47:32;;;;;;;20.60;8.77;;;18.90;99.90;;;;;;4971459;28;20089;-82
2023/09/11 05:50:00;;;;;;;15.18;7.97;;;19.00;99.90;;;;;;4969626;28;20089;-83
2023/09/11 05:52:27;;;;;;;21.40;8.32;;;19.00;99.90;;;;;;4955186;28;20034;-81
2023/09/11 05:54:52;;;;;;;16.35;7.70;;;19.10;99.90;;;;;;4988098;28;20045;-83
2023/09/11 05:57:18;;;;;;;13.13;8.15;;;19.20;99.90;;;;;;4958439;28;20026;-82
2023/09/11 05:59:43;;;;;;;8.68;6.22;;;19.30;99.90;;;;;;4953486;28;20030;-82
2023/09/11 06:02:09;;;;;;;11.20;5.80;;;19.30;99.90;;;;;;4973639;28;20398;-83
2023/09/11 06:04:34;;;;;;;17.15;8.32;;;19.40;99.90;;;;;;4972753;28;20058;-82
2023/09/11 06:07:01;;;;;;;15.63;7.82;;;19.50;99.90;;;;;;4969212;28;20070;-83
2023/09/11 06:09:28;;;;;;;11.82;7.65;;;19.50;99.90;;;;;;4967397;28;20033;-82
2023/09/11 06:11:53;;;;;;;18.23;8.65;;;19.60;99.90;;;;;;4977787;28;20073;-83
2023/09/11 06:14:19;;;;;;;16.40;7.65;;;19.60;99.90;;;;;;4954488;28;20077;-83
2023/09/11 06:16:48;;;;;;;17.85;7.38;;;19.80;99.90;;;;;;4952471;28;20037;-83
2023/09/11 06:19:19;;;;;;;10.68;7.10;;;19.90;99.90;;;;;;4955737;28;20414;-82
2023/09/11 06:21:45;;;;;;;14.80;7.47;;;20.00;99.90;;;;;;4967327;28;20035;-83
2023/09/11 06:24:11;;;;;;;18.98;8.85;;;20.00;99.90;;;;;;4969430;28;20048;-82
2023/09/11 06:26:37;;;;;;;14.55;7.80;;;20.20;99.90;;;;;;4969933;28;20063;-82
2023/09/11 06:29:02;;;;;;;14.88;7.30;;;20.30;99.90;;;;;;4957454;28;20483;-83
2023/09/11 06:31:31;;;;;;;16.10;7.30;;;20.30;99.90;;;;;;4964756;28;20035;-81
2023/09/11 06:33:56;;;;;;;12.98;6.70;;;20.50;99.90;;;;;;4970673;28;20034;-81
2023/09/11 06:36:23;;;;;;;12.57;6.93;;;20.60;99.90;;;;;;4981789;28;20031;-82
2023/09/11 06:38:48;;;;;;;13.80;7.40;;;20.70;99.90;;;;;;4986050;28;20070;-82
2023/09/11 06:41:14;;;;;;;16.98;7.18;;;20.80;99.90;;;;;;4970007;28;20038;-82
2023/09/11 06:43:39;;;;;;;14.68;7.20;;;20.90;99.90;;;;;;4971293;28;20031;-82
2023/09/11 06:46:05;;;;;;;12.15;6.93;;;21.00;99.90;;;;;;4971590;28;20491;-82
2023/09/11 06:48:31;;;;;;;10.45;6.80;;;21.10;99.90;;;;;;4975767;28;20419;-82
2023/09/11 06:50:56;;;;;;;14.48;7.18;;;21.20;99.90;;;;;;4968989;28;20086;-82
2023/09/11 06:53:22;;;;;;;16.45;7.10;;;21.30;99.90;;;;;;4976631;28;20376;-82
2023/09/11 06:55:47;;;;;;;9.20;6.00;;;21.40;99.90;;;;;;4967640;28;20042;-82
2023/09/11 06:58:13;;;;;;;18.42;8.25;;;21.60;99.60;;;;;;4969298;28;20035;-82
2023/09/11 07:00:39;;;;;;;11.98;6.85;;;21.70;99.90;;;;;;4969375;28;20054;-81
2023/09/11 07:03:05;;;;;;;9.93;6.28;;;21.90;99.70;;;;;;4973202;28;20114;-81
2023/09/11 07:05:30;;;;;;;18.90;7.07;;;22.00;99.80;;;;;;5001857;28;20418;-81
2023/09/11 07:07:56;;;;;;;8.60;5.65;;;22.10;99.80;;;;;;4976032;28;20056;-81
2023/09/11 07:10:22;;;;;;;14.65;6.80;;;22.30;99.20;;;;;;4971421;28;20184;-81
2023/09/11 07:12:47;;;;;;;12.73;7.15;;;22.40;98.90;;;;;;4971375;28;20042;-81
2023/09/11 07:15:13;;;;;;;12.38;6.00;;;22.50;98.80;;;;;;4973587;28;20038;-81
2023/09/11 07:17:40;;;;;;;8.88;5.57;;;22.70;98.80;;;;;;4975118;28;20045;-81
2023/09/11 07:20:06;;;;;;;17.75;6.75;;;22.80;98.30;;;;;;4953863;28;20042;-81
2023/09/11 07:22:32;;;;;;;11.23;6.15;;;23.00;98.00;;;;;;4985634;28;20037;-81
2023/09/11 07:24:59;;;;;;;22.42;7.03;;;23.20;98.10;;;;;;4954239;28;20031;-81
2023/09/11 07:27:32;;;;;;;14.77;7.28;;;23.40;97.30;;;;;;4952499;28;20121;-81
2023/09/11 07:30:03;;;;;;;14.68;5.82;;;23.40;97.00;;;;;;4971538;28;20055;-82
2023/09/11 07:32:30;;;;;;;14.50;6.65;;;23.50;97.10;;;;;;4969657;28;20569;-81
2023/09/11 07:34:56;;;;;;;14.32;6.10;;;23.70;97.00;;;;;;4964157;28;20032;-81
2023/09/11 07:37:21;;;;;;;14.95;5.90;;;23.80;96.80;;;;;;4968433;28;20407;-81
2023/09/11 07:39:47;;;;;;;15.82;7.07;;;24.00;96.50;;;;;;4949719;28;20041;-80
2023/09/11 07:42:13;;;;;;;14.60;5.82;;;24.20;96.80;;;;;;4990330;28;20055;-81
2023/09/11 07:44:39;;;;;;;18.20;6.53;;;24.30;96.20;;;;;;4973039;28;20050;-81
2023/09/11 07:47:05;;;;;;;12.88;5.50;;;24.60;95.50;;;;;;4958944;28;20108;-81
2023/09/11 07:49:30;;;;;;;10.57;6.30;;;24.60;95.70;;;;;;4973916;28;20037;-81
2023/09/11 07:51:56;;;;;;;9.98;6.05;;;24.60;95.60;;;;;;4975928;28;20118;-81
2023/09/11 07:54:22;;;;;;;12.32;6.15;;;24.70;94.90;;;;;;4956991;28;20030;-81
2023/09/11 07:56:47;;;;;;;12.43;5.93;;;24.80;95.00;;;;;;4956487;28;20023;-81
2023/09/11 07:59:13;;;;;;;17.20;4.93;;;24.90;95.10;;;;;;4973678;28;20030;-81
2023/09/11 08:01:38;;;;;;;13.20;6.00;;;25.20;94.70;;;;;;4974066;28;20030;-81
2023/09/11 08:04:05;;;;;;;15.70;5.95;;;25.30;94.30;;;;;;4955999;28;20035;-81
2023/09/11 08:06:30;;;;;;;14.02;5.07;;;25.50;94.20;;;;;;4954862;28;20042;-81
2023/09/11 08:09:03;;;;;;;10.15;5.20;;;25.70;94.10;;;;;;4976788;28;20045;-82
2023/09/11 08:11:28;;;;;;;11.30;5.40;;;25.70;94.20;;;;;;4978272;28;20034;-81
2023/09/11 08:13:54;;;;;;;12.30;5.80;;;25.90;93.90;;;;;;4974759;28;20050;-82
2023/09/11 08:16:20;;;;;;;13.93;6.10;;;25.90;93.80;;;;;;4975914;28;20491;-81
2023/09/11 08:18:45;;;;;;;15.25;5.80;;;26.00;93.60;;;;;;4975694;28;20027;-81
2023/09/11 08:21:13;;;;;;;11.80;5.50;;;26.00;93.60;;;;;;4960392;28;20035;-81
2023/09/11 08:23:41;;;;;;;14.77;6.20;;;26.20;93.40;;;;;;4975463;28;20114;-80
2023/09/11 08:26:08;;;;;;;16.83;6.53;;;26.20;93.30;;;;;;4959801;28;20039;-82
2023/09/11 08:28:33;;;;;;;9.55;5.18;;;26.30;93.30;;;;;;4974948;28;20081;-81
2023/09/11 08:30:59;;;;;;;13.85;5.90;;;26.50;93.00;;;;;;4961593;28;20022;-80
2023/09/11 08:33:25;;;;;;;12.93;6.03;;;26.70;92.30;;;;;;4982041;28;20027;-81
2023/09/11 08:35:50;;;;;;;9.52;5.22;;;27.00;92.40;;;;;;4963432;28;20458;-81
2023/09/11 08:38:18;;;;;;;11.65;5.28;;;27.30;92.20;;;;;;4984188;28;20464;-80
2023/09/11 08:40:44;;;;;;;17.00;5.93;;;27.70;91.40;;;;;;4970637;28;20033;-80
2023/09/11 08:43:09;;;;;;;12.43;5.60;;;27.60;91.60;;;;;;4981438;28;20483;-81
2023/09/11 08:45:36;;;;;;;8.95;5.43;;;27.80;91.10;;;;;;4974852;28;20030;-81
2023/09/11 08:48:04;;;;;;;11.23;4.53;;;27.80;91.50;;;;;;4991714;28;20049;-82
2023/09/11 08:50:34;;;;;;;12.25;4.93;;;28.00;90.20;;;;;;4978623;28;20081;-82
2023/09/11 08:53:01;;;;;;;14.82;5.07;;;28.10;89.40;;;;;;4991632;28;20034;-82
2023/09/11 08:55:34;;;;;;;11.40;5.38;;;28.50;87.20;;;;;;4963971;28;20039;-82
2023/09/11 08:58:02;;;;;;;18.38;5.97;;;28.60;86.40;;;;;;5001188;28;20082;-82
2023/09/11 09:00:28;;;;;;;13.48;4.90;;;28.80;84.90;;;;;;4982235;28;20062;-82
2023/09/11 09:02:53;;;;;;;14.52;5.32;;;28.90;86.50;;;;;;4950655;28;20038;-83
2023/09/11 09:05:25;;;;;;;15.43;5.55;;;28.90;86.40;;;;;;4970257;28;20045;-82
2023/09/11 09:07:51;;;;;;;15.35;6.13;;;28.90;85.30;;;;;;4981053;28;20102;-82
2023/09/11 09:10:16;;;;;;;11.77;4.78;;;29.10;82.60;;;;;;4963605;28;20039;-82
2023/09/11 09:12:42;;;;;;;12.90;5.30;;;29.10;83.90;;;;;;4981391;28;20034;-82
2023/09/11 09:15:09;;;;;;;11.57;5.32;;;29.50;82.60;;;;;;4979969;28;20073;-82
2023/09/11 09:17:34;;;;;;;10.10;4.50;;;29.40;82.40;;;;;;4970324;28;20038;-82
2023/09/11 09:20:00;;;;;;;11.20;5.10;;;29.80;80.10;;;;;;4971128;28;20062;-82
2023/09/11 09:22:26;;;;;;;10.30;5.10;;;29.70;81.00;;;;;;4976945;28;20035;-81
2023/09/11 09:24:53;;;;;;;10.45;5.13;;;30.00;79.40;;;;;;4978497;28;20395;-82
2023/09/11 09:27:20;;;;;;;12.00;4.50;;;30.10;78.90;;;;;;4955392;28;20035;-82
2023/09/11 09:29:47;;;;;;;12.68;5.60;;;30.10;79.80;;;;;;4968616;28;20054;-81
2023/09/11 09:32:13;;;;;;;12.07;4.70;;;29.90;82.00;;;;;;4957324;28;20075;-81
2023/09/11 09:34:42;;;;;;;10.77;5.10;;;30.10;81.10;;;;;;4960594;28;20049;-82
2023/09/11 09:37:14;;;;;;;10.52;4.65;;;30.50;79.60;;;;;;4975324;28;20109;-82
2023/09/11 09:39:40;;;;;;;16.98;5.18;;;30.60;80.00;;;;;;4979104;28;20491;-82
2023/09/11 09:42:07;;;;;;;10.85;4.75;;;30.40;80.90;;;;;;4962525;28;20098;-82
2023/09/11 09:44:40;;;;;;;10.35;5.22;;;30.60;80.60;;;;;;4976714;28;20554;-82
2023/09/11 09:47:07;;;;;;;11.73;5.20;;;30.80;79.20;;;;;;4941731;28;20042;-81
2023/09/11 09:49:41;;;;;;;13.35;5.18;;;30.90;79.00;;;;;;4972663;28;20034;-82
2023/09/11 09:52:07;;;;;;;9.18;5.15;;;30.70;79.80;;;;;;4971881;28;20030;-82
2023/09/11 09:54:43;;;;;;;11.93;4.90;;;31.30;78.10;;;;;;4975750;28;20031;-82
2023/09/11 09:57:18;;;;;;;7.30;4.90;;;31.40;77.20;;;;;;4989517;28;20036;-82
2023/09/11 09:59:58;;;;;;;12.32;4.93;;;31.40;76.50;;;;;;4972905;28;20340;-82
2023/09/11 10:02:31;;;;;;;11.88;5.68;;;31.80;75.70;;;;;;4975148;28;20085;-82
2023/09/11 10:05:07;;;;;;;14.27;5.32;;;32.30;73.40;;;;;;4976128;28;20050;-82
2023/09/11 10:07:43;;;;;;;9.27;5.38;;;32.30;73.00;;;;;;4973842;28;20045;-82
2023/09/11 10:10:25;;;;;;;9.82;4.35;;;32.40;74.10;;;;;;4970379;28;21256;-82
2023/09/11 10:13:04;;;;;;;9.68;4.97;;;32.00;75.80;;;;;;4969614;28;20042;-82
2023/09/11 10:15:34;;;;;;;12.70;5.10;;;32.20;74.50;;;;;;4990424;28;20231;-83
2023/09/11 10:18:00;;;;;;;10.82;4.60;;;32.70;72.60;;;;;;4954413;28;20038;-82
2023/09/11 10:20:26;;;;;;;5.68;4.65;;;32.80;72.30;;;;;;4973771;28;20041;-83
2023/09/11 10:22:57;;;;;;;11.18;5.90;;;32.70;73.30;;;;;;4973619;28;20060;-82
2023/09/11 10:25:23;;;;;;;7.35;4.50;;;32.70;72.60;;;;;;4961937;28;20166;-82
2023/09/11 10:27:49;;;;;;;8.98;5.22;;;32.80;71.40;;;;;;4975590;28;20039;-82
2023/09/11 10:30:20;;;;;;;9.52;5.05;;;33.50;70.10;;;;;;4977039;28;20055;-82
2023/09/11 10:32:50;;;;;;;10.77;4.80;;;33.30;70.20;;;;;;4976719;28;20117;-82
2023/09/11 10:35:15;;;;;;;9.40;4.90;;;33.40;70.10;;;;;;4974888;28;20022;-81
2023/09/11 10:37:41;;;;;;;12.90;5.28;;;33.70;68.80;;;;;;4976102;28;20158;-81
2023/09/11 10:40:08;;;;;;;12.63;4.72;;;33.70;69.50;;;;;;4975348;28;20124;-82
2023/09/11 10:42:34;;;;;;;13.18;5.18;;;33.40;70.70;;;;;;4972545;28;20035;-82
2023/09/11 10:44:59;;;;;;;15.63;5.65;;;33.80;68.60;;;;;;4986725;28;21030;-82
2023/09/11 10:47:26;;;;;;;12.38;4.70;;;33.90;68.90;;;;;;4971382;28;20716;-83
2023/09/11 10:49:52;;;;;;;6.63;4.57;;;33.50;70.50;;;;;;4974593;28;20034;-81
2023/09/11 10:52:18;;;;;;;10.10;5.18;;;33.40;70.80;;;;;;4956642;28;20092;-81
2023/09/11 10:54:44;;;;;;;10.23;4.70;;;34.10;69.30;;;;;;4950742;28;20053;-81
2023/09/11 10:57:10;;;;;;;11.90;5.82;;;33.90;70.20;;;;;;4973877;28;20380;-81
2023/09/11 10:59:39;;;;;;;12.63;4.80;;;34.30;69.00;;;;;;4969600;28;20090;-81
2023/09/11 11:02:05;;;;;;;14.48;5.72;;;34.30;69.00;;;;;;4983114;28;20155;-81
2023/09/11 11:04:32;;;;;;;10.90;4.95;;;34.20;68.80;;;;;;4968892;28;20103;-81
2023/09/11 11:06:59;;;;;;;9.25;5.10;;;34.40;69.10;;;;;;4972442;28;20428;-81
2023/09/11 11:09:34;;;;;;;16.02;5.82;;;34.50;68.70;;;;;;4987892;28;20093;-80
2023/09/11 11:12:03;;;;;;;;;;;34.00;70.60;;;;;;4969547;28;20038;-80
2023/09/11 11:14:29;;;;;;;8.27;5.13;;;33.90;71.50;;;;;;4949799;28;19910;-80
2023/09/11 11:17:06;;;;;;;9.80;4.88;;;34.50;67.30;;;;;;4966378;28;20041;-80
2023/09/11 11:19:37;;;;;;;10.20;4.78;;;34.20;69.00;;;;;;4970345;28;20037;-79
2023/09/11 11:22:06;;;;;;;6.10;4.60;;;34.00;70.30;;;;;;4964129;28;20039;-80
2023/09/11 11:24:36;;;;;;;10.38;5.18;;;34.40;70.30;;;;;;4957792;28;20062;-79
2023/09/11 11:27:03;;;;;;;8.20;4.60;;;34.60;69.20;;;;;;4971091;28;20125;-79
2023/09/11 11:29:29;;;;;;;12.82;3.90;;;34.30;69.70;;;;;;4976225;28;20034;-80
2023/09/11 11:31:57;;;;;;;8.20;5.00;;;34.30;69.70;;;;;;4955290;28;20042;-79
2023/09/11 11:34:28;;;;;;;11.05;4.75;;;34.20;69.80;;;;;;4969440;28;20488;-78
2023/09/11 11:36:57;;;;;;;5.88;4.50;;;34.40;70.10;;;;;;4974961;28;20399;-79
2023/09/11 11:39:23;;;;;;;7.80;4.68;;;34.40;70.20;;;;;;4976632;28;20462;-79
2023/09/11 11:41:50;;;;;;;6.40;4.43;;;34.70;68.70;;;;;;4965975;28;20038;-79
2023/09/11 11:44:17;;;;;;;9.88;4.70;;;34.50;69.40;;;;;;4971753;28;20043;-79
2023/09/11 11:46:43;;;;;;;6.95;4.43;;;34.90;68.70;;;;;;4973734;28;20513;-78
2023/09/11 11:49:08;;;;;;;10.88;4.63;;;35.00;67.80;;;;;;4958919;28;20046;-79
2023/09/11 11:51:34;;;;;;;7.07;4.75;;;35.10;67.90;;;;;;4967486;28;20054;-79
2023/09/11 11:54:00;;;;;;;12.02;5.47;;;35.40;67.80;;;;;;4971421;28;20038;-79
2023/09/11 11:56:26;;;;;;;7.82;4.70;;;34.60;69.00;;;;;;4972978;28;20038;-78
2023/09/11 11:58:55;;;;;;;7.90;4.95;;;34.60;70.80;;;;;;4969651;28;20153;-79
2023/09/11 12:01:21;;;;;;;9.30;5.35;;;35.00;69.30;;;;;;4968680;28;20525;-79
2023/09/11 12:03:50;;;;;;;12.90;5.28;;;35.70;67.30;;;;;;4971125;28;20042;-79
2023/09/11 12:06:16;;;;;;;13.00;5.10;;;35.30;68.90;;;;;;4966872;28;20026;-79
2023/09/11 12:08:41;;;;;;;15.52;5.13;;;35.10;69.00;;;;;;4969832;28;20402;-79
2023/09/11 12:11:07;;;;;;;11.20;4.85;;;35.60;68.10;;;;;;4970070;28;20035;-79
2023/09/11 12:13:33;;;;;;;14.90;5.78;;;34.90;69.20;;;;;;4969041;28;20053;-80
2023/09/11 12:15:59;;;;;;;10.15;4.72;;;35.90;66.40;;;;;;4968541;28;20038;-79
2023/09/11 12:18:26;;;;;;;8.48;4.70;;;36.20;64.50;;;;;;4968404;28;20050;-78
2023/09/11 12:21:02;;;;;;;8.95;5.72;;;35.90;66.30;;;;;;4978843;28;20480;-79
2023/09/11 12:23:28;;;;;;;13.80;4.97;;;36.20;64.10;;;;;;4966401;28;20030;-79
2023/09/11 12:25:54;;;;;;;8.57;4.80;;;35.80;66.50;;;;;;4968228;28;20506;-79
2023/09/11 12:28:21;;;;;;;11.77;5.55;;;34.90;69.90;;;;;;4970685;28;20027;-79
2023/09/11 12:30:47;;;;;;;12.43;5.78;;;35.10;70.10;;;;;;4971448;28;20107;-80
2023/09/11 12:33:14;;;;;;;12.25;5.30;;;35.70;68.60;;;;;;4969026;28;20063;-80